Bookmark and Share
Track history (hours):
 

BBC Elbe

Last reported at 2014-Apr-17 16:03 UTC. Time now 2014-Apr-20 19:10 UTC.
Position N 34°52' E 120°23'.

Length 143 m; draft 6.2 m.

Type: Cargo ship. MMSI: 218710000.

NotesDate/timePositionNaut miles runAvg speedWind from/ knotsBaromVisibWave heightAir tempDewpointWater temp
2014-Apr-17 16:03N 34°52' E 120°23'50 1.5
2014-Apr-16 06:11N 34°45' E 119°23'0 0.0
2014-Apr-16 05:23N 34°45' E 119°23'0 0.0
2014-Apr-16 04:29N 34°45' E 119°23'0 0.0
2014-Apr-16 03:32N 34°45' E 119°23'0 0.0
2014-Apr-16 02:29N 34°45' E 119°23'0 0.0
2014-Apr-16 01:29N 34°45' E 119°23'0 0.2
2014-Apr-16 00:33N 34°45' E 119°23'9 8.9
2014-Apr-15 23:33N 34°46' E 119°34'8 7.6
2014-Apr-15 22:33N 34°51' E 119°42'1 1.1
2014-Apr-15 21:33N 34°52' E 119°42'0 0.1
2014-Apr-15 20:30N 34°52' E 119°42'0 0.0
2014-Apr-15 19:33N 34°52' E 119°42'0 0.0
2014-Apr-15 18:33N 34°52' E 119°42'0 0.1
2014-Apr-15 17:33N 34°52' E 119°42'0 0.0
2014-Apr-15 16:30N 34°52' E 119°42'0 0.1
2014-Apr-15 15:30N 34°52' E 119°42'0 0.0
2014-Apr-15 14:33N 34°52' E 119°42'0 0.0
2014-Apr-15 12:34N 34°52' E 119°42'0 0.0
2014-Apr-15 11:34N 34°52' E 119°42'0 0.1
2014-Apr-15 10:33N 34°52' E 119°42'0 0.1
2014-Apr-15 09:34N 34°52' E 119°42'0 0.0
2014-Apr-15 08:33N 34°52' E 119°42'0 0.0
2014-Apr-15 07:34N 34°52' E 119°42'1 0.9
2014-Apr-15 06:34N 34°52' E 119°43'1211.9
2014-Apr-15 05:34N 34°57' E 119°56'  
2014-Apr-12 13:30N 34°03' E 134°55'1212.5
2014-Apr-12 12:33N 34°14' E 134°57'1212.0
2014-Apr-12 11:33N 34°25' E 135°04'1313.5
2014-Apr-12 10:33N 34°34' E 135°15'7 6.6
2014-Apr-12 09:28N 34°41' E 135°13'0 0.0
2014-Apr-12 08:28N 34°41' E 135°13'0 0.0
2014-Apr-12 07:28N 34°41' E 135°13'0 0.0
2014-Apr-12 06:28N 34°41' E 135°13'0 0.0
2014-Apr-12 05:28N 34°41' E 135°13'0 0.0
2014-Apr-12 04:28N 34°41' E 135°13'0 0.0
2014-Apr-12 03:22N 34°41' E 135°13'0 0.0
2014-Apr-12 02:28N 34°41' E 135°13'0 0.0
2014-Apr-12 01:22N 34°41' E 135°13'0 0.0
2014-Apr-12 00:28N 34°41' E 135°13'0 0.0
2014-Apr-11 23:28N 34°41' E 135°13'0 0.0
2014-Apr-11 22:16N 34°41' E 135°13'0 0.0
2014-Apr-11 21:28N 34°41' E 135°13'0 0.0
2014-Apr-11 20:28N 34°41' E 135°13'0 0.0
2014-Apr-11 19:22N 34°41' E 135°13'0 0.0
2014-Apr-11 18:28N 34°41' E 135°13'0 0.0
2014-Apr-11 17:28N 34°41' E 135°13'0 0.0
2014-Apr-11 16:22N 34°41' E 135°13'0 0.0
2014-Apr-11 15:28N 34°41' E 135°13'0 0.0
2014-Apr-11 14:28N 34°41' E 135°13'0 0.0
2014-Apr-11 13:28N 34°41' E 135°13'0 0.0
2014-Apr-11 12:28N 34°41' E 135°13'0 0.0
2014-Apr-11 11:28N 34°41' E 135°13'0 0.0
2014-Apr-11 10:22N 34°41' E 135°13'0 0.0
2014-Apr-11 09:28N 34°41' E 135°13'0 0.0
2014-Apr-11 08:28N 34°41' E 135°13'0 0.0
2014-Apr-11 07:28N 34°41' E 135°13'0 0.0
2014-Apr-11 06:28N 34°41' E 135°13'0 0.0
2014-Apr-11 05:22N 34°41' E 135°13'0 0.0
2014-Apr-11 04:28N 34°41' E 135°13'0 0.0
2014-Apr-11 03:22N 34°41' E 135°13'0 0.0
2014-Apr-11 02:28N 34°41' E 135°13'0 0.0
2014-Apr-11 01:28N 34°41' E 135°13'0 0.0
2014-Apr-11 00:28N 34°41' E 135°13'0 0.0
2014-Apr-10 23:33N 34°41' E 135°13'5 4.6
2014-Apr-10 22:33N 34°37' E 135°16'9 8.6
2014-Apr-10 21:33N 34°30' E 135°11'10 9.5
2014-Apr-10 20:33N 34°22' E 135°04'1212.3
2014-Apr-10 19:33N 34°11' E 134°59'12311.1
2014-Apr-10 08:28N 32°45' E 133°15'  

Dump ship's entire track history

sailing weather and tide predictions

BBC Elbe — DFGX — position and weather